createdAt,value
2023-03-21T00:02:14.673Z,70.91
2023-03-21T00:07:17.811Z,70.23
2023-03-21T00:12:26.561Z,70.98
2023-03-21T00:17:32.856Z,71.46
2023-03-21T00:22:45.073Z,71.45
2023-03-21T00:28:08.006Z,70.93
2023-03-21T00:33:25.343Z,71.07
2023-03-21T00:38:30.833Z,71.13
2023-03-21T00:43:37.785Z,70.92
2023-03-21T00:48:43.436Z,71.92
2023-03-21T00:53:46.900Z,72.06
2023-03-21T00:58:52.673Z,72.17
2023-03-21T01:04:06.554Z,71.60
2023-03-21T01:09:21.313Z,71.98
2023-03-21T01:14:28.392Z,72.15
2023-03-21T01:19:48.695Z,71.92
2023-03-21T01:25:08.738Z,72.14
2023-03-21T01:30:37.023Z,71.77
2023-03-21T01:35:50.494Z,72.85
2023-03-21T02:20:18.545Z,74.21
2023-03-21T02:26:30.752Z,73.65
2023-03-21T02:37:44.664Z,73.17
2023-03-21T02:43:22.900Z,72.80
2023-03-21T02:48:48.098Z,72.48
2023-03-21T02:54:26.545Z,71.89
2023-03-21T02:59:30.129Z,71.81
2023-03-21T03:04:33.350Z,71.81
2023-03-21T03:09:58.532Z,70.73
2023-03-21T03:15:22.195Z,71.28
2023-03-21T03:20:39.784Z,71.35
2023-03-21T03:25:49.844Z,72.20
2023-03-21T03:31:34.506Z,72.70
2023-03-21T03:36:42.738Z,72.09
2023-03-21T03:42:18.462Z,72.18
2023-03-21T03:47:32.242Z,71.68
2023-03-21T03:52:57.001Z,71.46
2023-03-21T03:58:13.165Z,71.03
2023-03-21T04:03:23.601Z,72.20
2023-03-21T04:08:27.119Z,72.81
2023-03-21T04:13:33.871Z,72.27
2023-03-21T04:18:44.815Z,72.34
2023-03-21T04:24:01.777Z,72.65
2023-03-21T04:29:11.130Z,72.56
2023-03-21T04:34:21.818Z,72.81
2023-03-21T04:39:27.187Z,73.04
2023-03-21T04:44:41.067Z,71.96
2023-03-21T05:30:30.574Z,74.98
2023-03-21T05:35:36.590Z,73.78
2023-03-21T05:41:04.579Z,73.12
2023-03-21T05:46:15.497Z,73.08
2023-03-21T05:51:30.048Z,72.30
2023-03-21T05:56:34.157Z,72.46
2023-03-21T06:01:40.387Z,72.63
2023-03-21T06:06:46.188Z,72.52
2023-03-21T06:11:55.056Z,72.54
2023-03-21T06:16:59.142Z,72.24
2023-03-21T06:22:18.489Z,72.39
2023-03-21T06:27:21.607Z,72.56
2023-03-21T06:32:30.722Z,72.36
